createdAt,value
2023-04-22T00:00:55.239Z,94.03
2023-04-22T00:03:02.206Z,92.62
2023-04-22T00:05:08.684Z,92.51
2023-04-22T00:07:17.527Z,94.65
2023-04-22T00:09:23.763Z,93.84
2023-04-22T00:11:30.672Z,94.87
2023-04-22T00:13:37.314Z,93.77
2023-04-22T00:15:42.280Z,93.06
2023-04-22T00:17:47.599Z,94.99
2023-04-22T00:19:56.632Z,94.43
2023-04-22T00:22:01.657Z,94.71
2023-04-22T00:24:09.781Z,94.08
2023-04-22T00:26:18.569Z,95.41
2023-04-22T00:28:23.537Z,94.39
2023-04-22T00:30:31.734Z,95.63
2023-04-22T00:32:36.794Z,94.56
2023-04-22T00:34:41.880Z,94.78
2023-04-22T00:36:49.262Z,95.39
2023-04-22T00:38:54.740Z,96.16
2023-04-22T00:41:02.631Z,95.46
2023-04-22T00:43:07.864Z,95.68
2023-04-22T00:45:15.032Z,95.90
2023-04-22T00:47:20.998Z,95.68
2023-04-22T00:49:26.633Z,96.15
2023-04-22T00:51:32.011Z,95.56
2023-04-22T00:53:37.342Z,95.06
2023-04-22T00:55:42.448Z,95.73
2023-04-22T00:57:53.750Z,94.83
2023-04-22T01:00:00.376Z,95.19
2023-04-22T01:02:07.306Z,94.82
2023-04-22T01:04:14.658Z,95.38
2023-04-22T01:06:25.535Z,95.32
2023-04-22T01:08:32.916Z,95.95
2023-04-22T01:10:38.687Z,96.22
2023-04-22T01:12:43.785Z,95.88
2023-04-22T01:14:52.649Z,97.19
2023-04-22T01:16:58.960Z,96.33
2023-04-22T01:19:04.375Z,95.75
2023-04-22T01:21:09.954Z,95.71
2023-04-22T01:23:26.371Z,96.66
2023-04-22T01:25:31.719Z,96.24
2023-04-22T01:27:38.316Z,96.91
2023-04-22T01:29:43.559Z,96.24
2023-04-22T01:31:49.302Z,97.23
2023-04-22T01:33:54.491Z,96.78
2023-04-22T01:35:59.494Z,96.63
2023-04-22T01:38:04.471Z,97.20
2023-04-22T01:40:16.025Z,96.19
2023-04-22T01:42:23.443Z,96.39
2023-04-22T01:44:29.375Z,96.80
2023-04-22T01:46:34.596Z,96.85
2023-04-22T01:48:40.055Z,96.64
2023-04-22T01:50:45.473Z,96.41
2023-04-22T01:52:50.524Z,96.61
2023-04-22T01:54:55.875Z,97.32
2023-04-22T01:57:12.081Z,96.64
2023-04-22T01:59:18.251Z,96.26
2023-04-22T02:01:23.418Z,97.54
2023-04-22T02:03:31.969Z,97.15
2023-04-22T02:05:37.067Z,97.02
2023-04-22T02:07:42.343Z,97.80
2023-04-22T02:09:44.821Z,97.48
2023-04-22T02:11:49.717Z,97.29
2023-04-22T02:13:57.665Z,97.90
2023-04-22T02:16:02.606Z,97.24
2023-04-22T02:18:08.297Z,97.13
2023-04-22T02:20:14.917Z,97.06
2023-04-22T02:22:20.358Z,96.88
2023-04-22T02:24:27.820Z,97.18
2023-04-22T02:26:32.689Z,96.96
2023-04-22T02:28:39.629Z,97.23
2023-04-22T02:30:51.390Z,97.21
2023-04-22T02:32:56.510Z,97.13
2023-04-22T02:35:02.343Z,97.04
2023-04-22T02:37:07.491Z,97.32
2023-04-22T02:39:12.519Z,97.43
2023-04-22T02:41:18.158Z,97.32
2023-04-22T02:43:23.173Z,97.14
2023-04-22T02:45:28.814Z,97.31
2023-04-22T02:47:36.737Z,97.57
2023-04-22T02:49:42.303Z,97.79
2023-04-22T02:51:48.561Z,98.10
2023-04-22T02:53:53.642Z,97.55
2023-04-22T02:55:59.749Z,97.98
2023-04-22T02:58:04.994Z,98.02
2023-04-22T03:00:11.817Z,97.97
2023-04-22T03:02:19.658Z,98.55
2023-04-22T03:04:27.707Z,98.11
2023-04-22T03:06:33.191Z,98.06
2023-04-22T03:08:38.227Z,98.48
2023-04-22T03:10:43.245Z,98.64
2023-04-22T03:12:51.536Z,98.56
2023-04-22T03:14:56.776Z,98.47
2023-04-22T03:17:02.013Z,98.63
2023-04-22T03:19:07.272Z,98.49
2023-04-22T03:21:15.036Z,98.19
2023-04-22T03:23:20.170Z,98.36
2023-04-22T03:25:29.110Z,98.48
2023-04-22T03:27:34.034Z,98.26
2023-04-22T03:29:39.403Z,98.57
2023-04-22T03:31:44.545Z,98.21
2023-04-22T03:33:49.534Z,98.41
2023-04-22T03:35:55.274Z,98.64
2023-04-22T03:38:02.964Z,98.68
2023-04-22T03:40:09.867Z,98.78
2023-04-22T03:42:20.121Z,98.94
2023-04-22T03:44:25.081Z,98.82
2023-04-22T03:46:30.438Z,99.10
2023-04-22T03:48:36.988Z,98.77
2023-04-22T03:50:42.303Z,99.04
2023-04-22T03:52:47.826Z,99.12
2023-04-22T03:54:55.731Z,98.80
2023-04-22T03:57:01.937Z,98.85
2023-04-22T03:59:07.070Z,98.91
2023-04-22T04:01:13.806Z,98.68
2023-04-22T04:03:22.072Z,98.79
2023-04-22T04:05:27.399Z,98.95
2023-04-22T04:07:33.550Z,98.97
2023-04-22T04:09:38.981Z,98.80
2023-04-22T04:11:46.886Z,98.78
2023-04-22T04:13:54.614Z,98.77
2023-04-22T04:16:01.331Z,98.97
2023-04-22T04:18:06.949Z,98.86
2023-04-22T04:20:12.900Z,98.69
2023-04-22T04:22:19.985Z,98.73
2023-04-22T04:24:24.924Z,98.98
2023-04-22T04:26:30.880Z,99.09
2023-04-22T04:28:38.633Z,99.36
2023-04-22T04:30:43.970Z,99.54
2023-04-22T04:32:49.684Z,99.44
2023-04-22T04:34:55.902Z,98.63
2023-04-22T04:37:01.429Z,98.84
2023-04-22T04:39:06.855Z,98.55
2023-04-22T04:41:11.816Z,98.57
2023-04-22T04:43:17.004Z,98.53
2023-04-22T04:45:27.729Z,98.51
2023-04-22T04:47:34.230Z,99.10
2023-04-22T04:49:40.982Z,98.99
2023-04-22T04:51:46.112Z,98.88
2023-04-22T04:53:51.256Z,98.62
2023-04-22T04:55:56.452Z,99.00
2023-04-22T04:58:02.392Z,98.98
2023-04-22T05:00:08.744Z,98.98
2023-04-22T05:02:16.663Z,99.08
2023-04-22T05:04:25.317Z,99.26
2023-04-22T05:06:32.456Z,99.54
2023-04-22T05:08:37.954Z,99.56
2023-04-22T05:10:43.806Z,99.06
2023-04-22T05:12:49.454Z,98.77
2023-04-22T05:14:54.532Z,98.93
2023-04-22T05:16:59.653Z,99.08
2023-04-22T05:19:08.646Z,99.46
2023-04-22T05:21:13.882Z,99.04
2023-04-22T05:23:21.731Z,99.06
2023-04-22T05:25:27.457Z,99.03
2023-04-22T05:27:33.115Z,99.25
2023-04-22T05:29:38.375Z,99.23
2023-04-22T05:31:43.786Z,99.23
2023-04-22T05:33:49.709Z,99.21
2023-04-22T05:35:57.553Z,99.38
2023-04-22T05:38:03.233Z,99.04
2023-04-22T05:40:09.755Z,99.06
2023-04-22T05:42:14.780Z,99.04
2023-04-22T05:44:19.726Z,99.04
2023-04-22T05:46:24.996Z,99.30
2023-04-22T05:48:30.011Z,99.05
2023-04-22T05:50:39.178Z,98.75
2023-04-22T05:52:48.084Z,98.82
2023-04-22T05:54:53.380Z,98.94
2023-04-22T05:56:58.927Z,98.75
2023-04-22T05:59:04.040Z,98.92
2023-04-22T06:01:09.219Z,98.67
2023-04-22T06:03:14.802Z,98.84
2023-04-22T06:05:20.178Z,98.68
2023-04-22T06:07:28.458Z,98.44
2023-04-22T06:09:36.763Z,98.47
2023-04-22T06:11:42.186Z,98.34
2023-04-22T06:13:49.596Z,98.27
2023-04-22T06:15:54.727Z,98.41
2023-04-22T06:17:59.894Z,98.14
2023-04-22T06:20:06.991Z,97.87
2023-04-22T06:22:12.179Z,98.23
2023-04-22T06:24:19.414Z,98.04
2023-04-22T06:26:27.077Z,97.62
2023-04-22T06:28:33.131Z,97.45
2023-04-22T06:30:38.173Z,97.59
2023-04-22T06:32:43.630Z,97.69
2023-04-22T06:34:51.313Z,97.20
2023-04-22T06:36:56.419Z,97.21
2023-04-22T06:39:01.448Z,97.40
2023-04-22T06:41:06.791Z,96.55
2023-04-22T06:43:14.371Z,96.51
2023-04-22T06:45:21.671Z,96.33
2023-04-22T06:47:26.720Z,96.05
2023-04-22T06:49:33.100Z,95.70
2023-04-22T06:51:38.618Z,95.15
2023-04-22T06:53:43.945Z,95.02
2023-04-22T06:55:49.497Z,94.57
2023-04-22T06:57:57.210Z,94.59
2023-04-22T07:00:06.019Z,94.27
2023-04-22T07:02:11.348Z,93.65
2023-04-22T07:04:16.707Z,93.42
2023-04-22T07:06:24.698Z,92.97
2023-04-22T07:08:29.865Z,92.19
2023-04-22T07:10:36.751Z,92.81
2023-04-22T07:12:42.349Z,92.62
2023-04-22T07:14:48.311Z,92.29
2023-04-22T07:16:56.315Z,90.74
2023-04-22T07:19:03.400Z,91.53
2023-04-22T07:21:09.053Z,90.04
2023-04-22T07:23:14.689Z,89.65
2023-04-22T07:25:20.323Z,89.71
2023-04-22T07:27:26.549Z,89.44
2023-04-22T07:29:33.429Z,89.39
2023-04-22T07:31:39.467Z,89.28
2023-04-22T07:33:47.304Z,88.81
2023-04-22T07:35:52.850Z,88.02
2023-04-22T07:37:58.000Z,87.39
2023-04-22T07:40:03.356Z,86.21
2023-04-22T07:42:08.958Z,83.66
2023-04-22T07:44:20.265Z,84.73
2023-04-22T07:46:28.248Z,82.87
2023-04-22T07:48:33.380Z,81.33
2023-04-22T07:50:43.545Z,81.61
2023-04-22T07:52:49.073Z,79.33
2023-04-22T07:54:54.270Z,77.05
2023-04-22T07:57:00.154Z,77.89
2023-04-22T07:59:06.754Z,77.58
2023-04-22T08:01:11.832Z,75.43
2023-04-22T08:03:19.425Z,74.71
2023-04-22T08:05:25.137Z,74.93
2023-04-22T08:07:33.840Z,74.04
2023-04-22T08:09:39.394Z,72.48
2023-04-22T08:11:44.865Z,75.73
2023-04-22T08:13:49.985Z,73.16
2023-04-22T08:15:55.523Z,76.06
2023-04-22T08:18:02.153Z,76.77
2023-04-22T08:20:09.086Z,73.44
2023-04-22T08:22:14.356Z,74.82
2023-04-22T08:24:26.192Z,75.01
2023-04-22T08:26:32.549Z,73.48
2023-04-22T08:28:38.025Z,74.74
2023-04-22T08:30:43.041Z,71.91
2023-04-22T08:32:49.146Z,70.05
2023-04-22T08:35:01.138Z,69.92
2023-04-22T08:37:09.467Z,67.54
2023-04-22T08:39:14.828Z,67.80
2023-04-22T08:41:26.193Z,66.65
2023-04-22T08:43:34.651Z,67.70
2023-04-22T08:45:43.544Z,68.16
2023-04-22T08:47:49.327Z,68.79
2023-04-22T08:49:56.693Z,67.80
2023-04-22T08:52:03.148Z,64.70
2023-04-22T08:54:09.030Z,64.76
2023-04-22T08:56:15.704Z,63.32
2023-04-22T08:58:23.489Z,60.45
2023-04-22T09:00:29.077Z,62.83
2023-04-22T09:02:36.519Z,64.68
2023-04-22T09:04:41.975Z,63.56
2023-04-22T09:06:47.806Z,61.37
2023-04-22T09:08:53.425Z,60.92
2023-04-22T09:10:59.098Z,61.20
2023-04-22T09:13:06.460Z,63.41
2023-04-22T09:15:15.746Z,59.62
2023-04-22T09:17:24.713Z,60.21
2023-04-22T09:19:33.457Z,61.65
2023-04-22T09:21:38.976Z,62.55
2023-04-22T09:23:56.098Z,61.31
2023-04-22T09:26:07.070Z,61.33
2023-04-22T09:28:16.090Z,61.84
2023-04-22T09:30:27.495Z,59.71
2023-04-22T09:32:33.449Z,61.06
2023-04-22T09:34:49.606Z,62.32
2023-04-22T09:36:55.155Z,62.60
2023-04-22T09:39:04.835Z,61.79
2023-04-22T09:41:13.014Z,61.77
2023-04-22T09:43:24.714Z,61.21
2023-04-22T09:45:39.311Z,61.66
2023-04-22T09:47:44.710Z,62.48
2023-04-22T09:49:50.200Z,62.12
2023-04-22T09:52:00.560Z,62.11
2023-04-22T09:54:10.232Z,60.53
2023-04-22T09:56:15.635Z,62.02
2023-04-22T09:58:26.084Z,61.90
2023-04-22T10:00:36.007Z,61.03
2023-04-22T10:02:41.530Z,59.70
2023-04-22T10:04:55.277Z,59.46
2023-04-22T10:07:03.593Z,59.64
2023-04-22T10:09:09.932Z,58.01
2023-04-22T10:11:15.570Z,60.13
2023-04-22T10:13:23.618Z,59.86
2023-04-22T10:15:33.867Z,58.93
2023-04-22T10:17:42.899Z,59.39
2023-04-22T10:19:56.585Z,60.04
2023-04-22T10:22:04.341Z,60.65
2023-04-22T10:24:11.252Z,60.26
2023-04-22T10:26:16.536Z,60.00
2023-04-22T10:28:25.902Z,59.36
2023-04-22T10:30:32.709Z,59.90
2023-04-22T10:32:37.972Z,59.69
2023-04-22T10:34:45.846Z,60.13
2023-04-22T10:37:02.660Z,60.35
2023-04-22T10:39:22.279Z,60.52
2023-04-22T10:41:34.262Z,62.28
2023-04-22T10:43:46.119Z,64.39
2023-04-22T10:45:51.991Z,65.83
2023-04-22T10:47:57.409Z,65.81
2023-04-22T10:50:24.967Z,66.49
2023-04-22T10:52:33.841Z,65.98
2023-04-22T10:55:02.976Z,66.14
2023-04-22T10:57:09.490Z,65.05
2023-04-22T10:59:22.075Z,66.67
2023-04-22T11:01:30.930Z,67.15
2023-04-22T11:03:36.984Z,67.70
2023-04-22T11:05:46.057Z,69.41
2023-04-22T11:07:53.406Z,67.07
2023-04-22T11:10:05.589Z,68.42
2023-04-22T11:12:52.859Z,67.83
2023-04-22T11:14:58.379Z,68.54
2023-04-22T11:17:05.048Z,69.44
2023-04-22T11:19:10.058Z,70.85
2023-04-22T11:21:19.640Z,71.89
2023-04-22T11:23:27.317Z,72.83
2023-04-22T11:25:33.771Z,73.23
2023-04-22T11:27:39.655Z,75.21
2023-04-22T11:29:45.584Z,75.55
2023-04-22T11:31:54.630Z,76.00
2023-04-22T11:34:02.166Z,75.96
2023-04-22T11:36:12.849Z,79.29
2023-04-22T11:38:20.632Z,78.01
2023-04-22T11:40:31.602Z,78.95
2023-04-22T11:42:39.115Z,80.26
2023-04-22T11:44:50.371Z,81.68
2023-04-22T11:46:55.387Z,81.65
2023-04-22T11:49:14.901Z,82.57
2023-04-22T11:51:19.944Z,84.70
2023-04-22T11:53:27.872Z,82.51
2023-04-22T11:55:35.177Z,83.43
2023-04-22T11:57:41.126Z,82.33
2023-04-22T11:59:46.707Z,82.71
2023-04-22T12:01:52.042Z,82.91
2023-04-22T12:04:04.046Z,82.25
2023-04-22T12:06:09.735Z,83.34
2023-04-22T12:08:16.904Z,83.84
2023-04-22T12:10:26.724Z,83.81
2023-04-22T12:12:33.175Z,84.52
2023-04-22T12:14:39.206Z,84.16
2023-04-22T12:16:45.279Z,85.63
2023-04-22T12:18:53.982Z,86.90
2023-04-22T12:21:02.829Z,88.02
2023-04-22T12:23:07.850Z,86.99
2023-04-22T12:25:12.931Z,87.00
2023-04-22T12:27:20.390Z,85.90
2023-04-22T12:29:30.317Z,85.13
2023-04-22T12:31:36.040Z,84.92
2023-04-22T12:33:42.109Z,84.70
2023-04-22T12:35:49.302Z,85.95
2023-04-22T12:37:54.234Z,85.67
2023-04-22T12:39:59.103Z,86.56
2023-04-22T12:42:06.130Z,86.75
2023-04-22T12:44:13.699Z,87.51
2023-04-22T12:46:21.432Z,85.81
2023-04-22T12:48:26.611Z,85.21
2023-04-22T12:50:31.967Z,85.89
2023-04-22T12:52:39.043Z,84.82
2023-04-22T12:54:44.017Z,85.51
2023-04-22T12:56:49.927Z,85.05
2023-04-22T12:58:57.596Z,84.39
2023-04-22T13:01:05.532Z,84.87
2023-04-22T13:03:11.888Z,85.18
2023-04-22T13:05:21.415Z,84.91
2023-04-22T13:07:26.616Z,85.32
2023-04-22T13:09:35.585Z,84.33
2023-04-22T13:11:42.511Z,83.98
2023-04-22T13:13:50.921Z,84.74
2023-04-22T13:15:57.042Z,84.87
2023-04-22T13:18:05.639Z,86.00
2023-04-22T13:20:14.677Z,86.34
2023-04-22T13:22:19.667Z,86.37
2023-04-22T13:24:24.828Z,86.12
2023-04-22T13:26:30.117Z,86.00
2023-04-22T13:28:36.105Z,86.49
2023-04-22T13:30:41.534Z,86.21
2023-04-22T13:32:46.528Z,85.98
2023-04-22T13:34:54.656Z,86.36
2023-04-22T13:37:00.514Z,86.80
2023-04-22T13:39:05.894Z,86.48
2023-04-22T13:41:10.834Z,86.22
2023-04-22T13:43:15.990Z,85.93
2023-04-22T13:45:23.875Z,86.17
2023-04-22T13:47:31.397Z,87.16
2023-04-22T13:49:36.799Z,86.86
2023-04-22T13:51:44.667Z,87.56
2023-04-22T13:53:50.076Z,86.42
2023-04-22T13:55:55.226Z,87.60
2023-04-22T13:58:01.415Z,87.46
2023-04-22T14:00:07.079Z,87.26
2023-04-22T14:02:12.113Z,88.46
2023-04-22T14:04:18.382Z,88.14
2023-04-22T14:06:23.920Z,88.09
2023-04-22T14:08:34.616Z,87.51
2023-04-22T14:10:39.920Z,87.64
2023-04-22T14:12:45.097Z,87.12
2023-04-22T14:14:49.887Z,88.03
2023-04-22T14:16:54.990Z,88.09
2023-04-22T14:19:03.174Z,88.59
2023-04-22T14:21:11.163Z,88.71
2023-04-22T14:23:16.285Z,88.16
2023-04-22T14:25:25.370Z,89.13
2023-04-22T14:27:30.565Z,90.14
2023-04-22T14:29:36.570Z,89.63
2023-04-22T14:31:41.768Z,90.05
2023-04-22T14:33:48.480Z,90.93
2023-04-22T14:35:53.819Z,90.97
2023-04-22T14:37:59.148Z,90.77
2023-04-22T14:40:04.551Z,91.26
2023-04-22T14:42:12.712Z,90.88
2023-04-22T14:44:18.189Z,90.98
2023-04-22T14:46:23.140Z,91.04
2023-04-22T14:48:32.600Z,90.22
2023-04-22T14:50:38.001Z,90.98
2023-04-22T14:52:43.348Z,91.76
2023-04-22T14:54:51.717Z,91.98
2023-04-22T14:56:57.089Z,91.66
2023-04-22T14:59:05.862Z,92.20
2023-04-22T15:01:11.036Z,93.07
2023-04-22T15:03:16.261Z,92.68
2023-04-22T15:05:25.260Z,92.54
2023-04-22T15:07:30.371Z,91.61
2023-04-22T15:09:35.779Z,92.16
2023-04-22T15:11:41.369Z,92.14
2023-04-22T15:13:50.300Z,91.67
2023-04-22T15:15:58.051Z,91.26
2023-04-22T15:18:03.544Z,90.36
2023-04-22T15:20:11.124Z,90.14
2023-04-22T15:22:16.264Z,89.87
2023-04-22T15:24:24.296Z,89.59
2023-04-22T15:26:29.411Z,89.66
2023-04-22T15:28:35.427Z,89.22
2023-04-22T15:30:42.666Z,89.19
2023-04-22T15:32:50.411Z,89.56
2023-04-22T15:34:55.545Z,89.52
2023-04-22T15:37:00.573Z,89.49
2023-04-22T15:39:07.150Z,89.33
2023-04-22T15:41:12.188Z,89.31
2023-04-22T15:43:19.664Z,89.93
2023-04-22T15:45:24.835Z,90.19
2023-04-22T15:47:31.428Z,88.24
2023-04-22T15:49:41.537Z,88.34
2023-04-22T15:51:47.297Z,87.73
2023-04-22T15:53:52.826Z,87.46
2023-04-22T15:55:58.265Z,87.41
2023-04-22T15:58:03.239Z,86.31
2023-04-22T16:00:14.351Z,87.28
2023-04-22T16:02:19.793Z,86.14
2023-04-22T16:04:25.091Z,85.25
2023-04-22T16:06:33.356Z,84.65
2023-04-22T16:08:38.982Z,85.21
2023-04-22T16:10:44.128Z,84.27
2023-04-22T16:12:49.678Z,84.86
2023-04-22T16:14:57.495Z,84.82
2023-04-22T16:17:03.234Z,84.34
2023-04-22T16:19:08.604Z,83.87
2023-04-22T16:21:13.732Z,83.18
2023-04-22T16:23:23.160Z,83.17
2023-04-22T16:25:29.804Z,83.91
2023-04-22T16:27:34.874Z,83.98
2023-04-22T16:29:41.612Z,83.46
2023-04-22T16:31:46.897Z,83.49
2023-04-22T16:33:52.859Z,85.22
2023-04-22T16:35:58.150Z,84.10
2023-04-22T16:38:03.561Z,82.87
2023-04-22T16:40:12.927Z,82.24
2023-04-22T16:42:20.615Z,81.99
2023-04-22T16:44:26.098Z,83.21
2023-04-22T16:46:30.994Z,82.82
2023-04-22T16:48:36.786Z,82.75
2023-04-22T16:50:42.492Z,83.04
2023-04-22T16:52:47.522Z,83.38
2023-04-22T16:54:56.037Z,83.32
2023-04-22T16:57:08.335Z,83.22
2023-04-22T16:59:14.515Z,82.49
2023-04-22T17:01:34.441Z,82.56
2023-04-22T17:03:39.720Z,82.62
2023-04-22T17:05:45.300Z,81.80
2023-04-22T17:07:50.364Z,82.13
2023-04-22T17:10:00.350Z,81.32
2023-04-22T17:12:08.585Z,81.03
2023-04-22T17:14:13.837Z,80.04
2023-04-22T17:16:21.358Z,80.83
2023-04-22T17:18:26.640Z,80.35
2023-04-22T17:20:31.969Z,80.52
2023-04-22T17:22:39.961Z,81.18
2023-04-22T17:24:45.237Z,81.59
2023-04-22T17:26:50.557Z,81.82
2023-04-22T17:28:58.027Z,81.12
2023-04-22T17:31:26.106Z,80.80
2023-04-22T17:33:58.220Z,80.66
2023-04-22T17:36:24.011Z,80.74
2023-04-22T17:38:34.787Z,80.02
2023-04-22T17:40:45.725Z,79.42
2023-04-22T17:43:08.780Z,80.27
2023-04-22T17:45:25.743Z,80.07
2023-04-22T17:47:54.200Z,80.46
2023-04-22T17:50:21.948Z,79.86
2023-04-22T17:52:37.009Z,80.65
2023-04-22T17:55:05.096Z,80.93
2023-04-22T17:57:31.075Z,80.00
2023-04-22T17:59:44.930Z,80.01
2023-04-22T18:02:01.671Z,80.71
2023-04-22T18:04:20.647Z,80.16
2023-04-22T18:06:31.794Z,80.11
2023-04-22T18:08:49.768Z,80.05
2023-04-22T18:10:58.637Z,80.11
2023-04-22T18:13:10.839Z,79.99
2023-04-22T18:15:24.706Z,79.89
2023-04-22T18:17:42.902Z,80.41
2023-04-22T18:20:21.801Z,80.21
2023-04-22T18:22:35.598Z,81.18
2023-04-22T18:24:58.103Z,79.85
2023-04-22T18:27:03.319Z,80.61
2023-04-22T18:29:12.060Z,80.41
2023-04-22T18:31:22.224Z,80.49
2023-04-22T18:33:39.120Z,81.08
2023-04-22T18:35:44.801Z,81.70
2023-04-22T18:37:53.518Z,81.39
2023-04-22T18:40:04.283Z,81.22
2023-04-22T18:42:12.527Z,81.04
2023-04-22T18:44:20.096Z,81.02
2023-04-22T18:46:31.477Z,82.11
2023-04-22T18:48:44.981Z,81.76
2023-04-22T18:50:51.382Z,81.79
2023-04-22T18:52:59.292Z,82.18
2023-04-22T18:57:34.103Z,83.44
2023-04-22T18:59:41.176Z,83.39
2023-04-22T19:01:50.721Z,83.13
2023-04-22T19:04:04.994Z,82.54
2023-04-22T19:06:13.088Z,83.62
2023-04-22T19:08:20.468Z,83.10
2023-04-22T19:10:27.983Z,83.00
2023-04-22T19:12:34.834Z,83.55
2023-04-22T19:14:51.908Z,83.24
2023-04-22T19:17:02.020Z,83.28
2023-04-22T19:19:42.510Z,83.94
2023-04-22T19:22:08.635Z,83.77
2023-04-22T19:24:37.982Z,84.69
2023-04-22T19:26:54.914Z,84.57
2023-04-22T19:29:25.514Z,85.00
2023-04-22T19:31:37.650Z,84.81
2023-04-22T19:33:55.185Z,85.49
2023-04-22T19:36:20.782Z,85.14
2023-04-22T19:38:37.385Z,85.14
2023-04-22T19:43:14.335Z,86.46
2023-04-22T19:45:33.317Z,85.89
2023-04-22T19:47:58.366Z,86.79
2023-04-22T19:50:13.785Z,87.17
2023-04-22T19:52:28.071Z,86.02
2023-04-22T19:54:39.438Z,86.72
2023-04-22T19:56:53.662Z,87.71
2023-04-22T19:59:20.627Z,88.31
2023-04-22T20:04:00.032Z,89.04
2023-04-22T20:06:08.099Z,89.56
2023-04-22T20:08:20.205Z,87.63
2023-04-22T20:10:30.254Z,89.64
2023-04-22T20:12:38.112Z,89.64
2023-04-22T20:14:45.554Z,89.40
2023-04-22T20:16:54.970Z,89.31
2023-04-22T20:19:11.647Z,88.73
2023-04-22T20:21:18.474Z,89.27
2023-04-22T20:23:28.650Z,90.39
2023-04-22T20:25:35.352Z,88.66
2023-04-22T20:27:43.965Z,88.62
2023-04-22T20:29:52.613Z,90.11
2023-04-22T20:31:59.554Z,88.92
2023-04-22T20:34:07.463Z,90.25
2023-04-22T20:36:15.207Z,90.11
2023-04-22T20:38:23.727Z,90.37
2023-04-22T20:40:32.518Z,90.83
2023-04-22T20:42:39.565Z,89.95
2023-04-22T20:44:44.908Z,90.12
2023-04-22T20:46:50.078Z,91.66
2023-04-22T20:48:55.194Z,90.40
2023-04-22T20:51:00.330Z,90.89
2023-04-22T20:53:08.372Z,92.07
2023-04-22T20:55:13.654Z,90.88
2023-04-22T20:57:24.644Z,91.99
2023-04-22T20:59:29.689Z,91.45
2023-04-22T21:01:35.076Z,91.25
2023-04-22T21:03:42.514Z,91.68
2023-04-22T21:05:50.865Z,91.86
2023-04-22T21:07:56.514Z,92.29
2023-04-22T21:10:01.967Z,92.40
2023-04-22T21:12:08.882Z,91.92
2023-04-22T21:14:19.241Z,92.48
2023-04-22T21:16:27.272Z,91.86
2023-04-22T21:18:34.787Z,92.52
2023-04-22T21:20:46.475Z,92.63
2023-04-22T21:22:52.626Z,93.09
2023-04-22T21:24:58.374Z,92.43
2023-04-22T21:27:04.472Z,93.00
2023-04-22T21:29:10.127Z,92.68
2023-04-22T21:31:20.815Z,92.26
2023-04-22T21:33:26.358Z,92.61
2023-04-22T21:35:31.817Z,92.96
2023-04-22T21:37:39.042Z,92.78
2023-04-22T21:39:44.119Z,92.98
2023-04-22T21:41:50.573Z,92.76
2023-04-22T21:43:55.766Z,93.65
2023-04-22T21:46:01.196Z,93.38
2023-04-22T21:48:09.373Z,93.57
2023-04-22T21:50:15.107Z,93.56
2023-04-22T21:52:20.772Z,93.26
2023-04-22T21:54:26.754Z,93.61
2023-04-22T21:56:33.922Z,93.54
2023-04-22T21:58:40.053Z,94.05
2023-04-22T22:00:45.356Z,94.15
2023-04-22T22:02:52.902Z,93.69
2023-04-22T22:05:01.847Z,93.60
2023-04-22T22:07:08.473Z,93.49
2023-04-22T22:09:14.511Z,93.22
2023-04-22T22:11:30.294Z,93.25
2023-04-22T22:13:38.161Z,93.42
2023-04-22T22:15:43.554Z,92.97
2023-04-22T22:17:50.346Z,92.98
2023-04-22T22:19:56.347Z,92.80
2023-04-22T22:22:04.072Z,93.14
2023-04-22T22:24:10.945Z,93.02
2023-04-22T22:26:16.323Z,93.71
2023-04-22T22:28:23.611Z,93.02
2023-04-22T22:30:30.272Z,93.41
2023-04-22T22:32:35.704Z,93.65
2023-04-22T22:34:41.289Z,93.88
2023-04-22T22:36:46.352Z,93.39
2023-04-22T22:38:53.882Z,93.75
2023-04-22T22:41:00.269Z,93.90
2023-04-22T22:43:05.264Z,93.59
2023-04-22T22:45:11.756Z,93.58
2023-04-22T22:47:18.193Z,93.64
2023-04-22T22:49:24.621Z,93.53
2023-04-22T22:51:30.378Z,93.74
2023-04-22T22:53:37.084Z,93.37
2023-04-22T22:55:44.806Z,93.77
2023-04-22T22:57:49.908Z,93.31
2023-04-22T22:59:55.021Z,93.25
2023-04-22T23:02:00.635Z,93.26
2023-04-22T23:04:06.349Z,93.39
2023-04-22T23:06:12.093Z,93.49
2023-04-22T23:08:17.114Z,93.84
2023-04-22T23:10:23.926Z,93.97
2023-04-22T23:12:34.554Z,93.62
2023-04-22T23:14:41.047Z,94.17
2023-04-22T23:16:46.952Z,94.33
2023-04-22T23:18:56.019Z,94.06
2023-04-22T23:21:02.959Z,93.71
2023-04-22T23:23:08.764Z,94.10
2023-04-22T23:25:15.712Z,94.13
2023-04-22T23:27:23.017Z,94.37
2023-04-22T23:29:32.003Z,94.57
2023-04-22T23:31:38.878Z,94.25
2023-04-22T23:33:49.723Z,94.64
2023-04-22T23:35:57.171Z,94.46
2023-04-22T23:38:03.787Z,94.58
2023-04-22T23:40:10.670Z,94.65
2023-04-22T23:42:15.904Z,94.74
2023-04-22T23:44:21.270Z,94.64
2023-04-22T23:46:29.687Z,94.81
2023-04-22T23:48:35.197Z,94.50
2023-04-22T23:50:40.229Z,94.60
2023-04-22T23:52:45.281Z,94.98
2023-04-22T23:54:51.332Z,94.82
2023-04-22T23:56:58.310Z,94.66
2023-04-22T23:59:04.262Z,95.07
